Garden City, Iowa
Current Conditions -  °F | °C
As of 6:15 AM on Friday 19 Dec 2014 (Local Time) from KIFA Reporting Station
Overcast Overcast  
Wind Chill: 26°   Ceiling: 3400
Heat Index: 26°   Visibility: 10mi
Dew Point: 22°   Wind: 3mph
Humidity: 88%   Direction: 120°ESE
Pressure: 30.25"   Gusts: NA
Location:  42.25°N, 93.4°W
Report Text: KIFA 191215Z AUTO 12003KT 10SM SCT012 SCT026 OVC034 M04/M05 A3025 RMK AO2 T10361053
Loading
Personal Weather Stations






























Interactive Weather Map New forecast layout! Learn more

10-Day Weather Forecast

Advertisements
Track Severe Weather on mobile